Terminal Aerodrome Forecast
Issued by NWS Cleveland, OH

Home | Current Version | Previous Version | Text Only | Print | Product List | Glossary On
Versions: 1 2 3 4 5 6 7 8 9 10 11 12 13 14
000
FTUS41 KCLE 271200 AAA
TAFYNG
TAF AMD
KYNG 271252Z 2713/2812 32010KT P6SM BKN015 OVC050
     FM271400 31010KT 6SM -SHRA SCT008 OVC015
      TEMPO 2714/2717 4SM -RA BR OVC008
     FM271800 33010G20KT P6SM OVC025
     FM272200 33008KT P6SM BKN035 OVC050
     FM280300 33004KT P6SM BKN050=

USA.gov is the U.S. government's official web portal to all federal, state and local government web resources and services.